Time;durP1;ratioP1;P1;durP2;ratioP2;P2;SDS_P1;SDS_P2;PMS_P1;PMS_P2;Temp;Humidity;BMP_temperature;BMP_pressure;BME280_temperature;BME280_humidity;BME280_pressure;Samples;Min_cycle;Max_cycle;Signal;HPM_P1;HPM_P2
2024/02/13 00:00:19;;;;;;;18.60;11.20;;;;;;;8.47;99.97;98685.86;105782;1255;72522;-76
2024/02/13 00:02:46;;;;;;;17.20;10.50;;;;;;;8.44;100.00;98685.23;105894;1253;60521;-76
2024/02/13 00:05:14;;;;;;;15.20;9.30;;;;;;;8.48;100.00;98682.14;105909;1253;60445;-77
2024/02/13 00:07:41;;;;;;;13.10;10.30;;;;;;;8.52;99.91;98681.37;105867;1258;72613;-78
2024/02/13 00:10:10;;;;;;;16.10;10.80;;;;;;;8.51;100.00;98683.04;105766;1254;70455;-77
2024/02/13 00:12:38;;;;;;;17.70;10.20;;;;;;;8.49;99.82;98680.21;105928;1255;72958;-76
2024/02/13 00:15:10;;;;;;;15.70;10.20;;;;;;;8.50;99.54;98690.09;105742;1253;61935;-76
2024/02/13 00:17:41;;;;;;;15.80;10.00;;;;;;;8.48;99.14;98694.84;105838;1254;60451;-75
2024/02/13 00:20:10;;;;;;;16.80;10.40;;;;;;;8.40;99.49;98693.98;105837;1258;74163;-77
2024/02/13 00:22:37;;;;;;;14.30;9.30;;;;;;;8.32;99.30;98693.38;106009;1257;69460;-77
2024/02/13 00:25:06;;;;;;;17.70;9.70;;;;;;;8.33;98.84;98691.48;105897;1257;71278;-74
2024/02/13 00:27:35;;;;;;;14.40;9.50;;;;;;;8.33;98.71;98691.27;106003;1258;60536;-76
2024/02/13 00:30:03;;;;;;;16.90;9.60;;;;;;;8.29;99.18;98691.09;105830;1253;60627;-77
2024/02/13 00:32:31;;;;;;;16.80;9.00;;;;;;;8.23;99.51;98685.95;105993;1253;73787;-76
2024/02/13 00:35:03;;;;;;;12.80;8.10;;;;;;;8.25;98.65;98685.36;106325;1254;69948;-75
2024/02/13 00:37:31;;;;;;;15.10;9.10;;;;;;;8.25;98.69;98679.90;107078;1253;71371;-74
2024/02/13 00:39:58;;;;;;;17.40;8.50;;;;;;;8.20;98.96;98676.21;108147;1254;59208;-75
2024/02/13 00:42:26;;;;;;;16.40;9.60;;;;;;;8.16;99.21;98676.14;107748;1255;60362;-76
2024/02/13 00:44:54;;;;;;;16.40;9.10;;;;;;;8.19;98.98;98678.10;105978;1257;73764;-76
2024/02/13 00:47:22;;;;;;;12.80;9.30;;;;;;;8.21;99.08;98673.46;105875;1253;70300;-76
2024/02/13 00:49:50;;;;;;;13.10;8.80;;;;;;;8.15;98.92;98677.52;105776;1256;73089;-76
2024/02/13 00:52:18;;;;;;;14.90;8.70;;;;;;;8.09;99.36;98674.52;105832;1258;60487;-77
2024/02/13 00:54:45;;;;;;;14.40;9.40;;;;;;;8.10;99.13;98684.27;105950;1253;60528;-76
2024/02/13 00:57:13;;;;;;;10.40;8.20;;;;;;;8.09;98.94;98692.63;105717;1253;72613;-77
2024/02/13 00:59:42;;;;;;;17.70;10.40;;;;;;;7.98;98.67;98699.37;105881;1253;70127;-77
2024/02/13 01:02:09;;;;;;;16.30;9.20;;;;;;;7.87;99.31;98700.35;105634;1261;72639;-74
2024/02/13 01:04:37;;;;;;;10.90;7.90;;;;;;;7.85;99.49;98693.98;105750;1253;62379;-75
2024/02/13 01:07:04;;;;;;;12.70;9.40;;;;;;;7.87;99.48;98693.96;105780;1257;60460;-78
2024/02/13 01:09:32;;;;;;;14.70;9.10;;;;;;;7.84;99.81;98698.87;105723;1253;73860;-76
2024/02/13 01:11:59;;;;;;;17.40;8.80;;;;;;;7.80;99.50;98687.23;105880;1253;68732;-76
2024/02/13 01:14:27;;;;;;;11.90;7.90;;;;;;;7.82;99.68;98680.94;105748;1256;72699;-76
2024/02/13 01:16:55;;;;;;;13.30;8.80;;;;;;;7.82;99.31;98681.15;105699;1258;60438;-76
2024/02/13 01:19:23;;;;;;;12.00;8.20;;;;;;;7.77;99.69;98676.30;105762;1253;60523;-76
2024/02/13 01:21:50;;;;;;;13.90;7.60;;;;;;;7.74;99.78;98678.42;105792;1253;73859;-75
2024/02/13 01:24:18;;;;;;;12.20;7.10;;;;;;;7.78;99.60;98690.79;105737;1253;70308;-74
2024/02/13 01:26:45;;;;;;;12.00;8.20;;;;;;;7.80;99.61;98691.80;105766;1258;72702;-77
2024/02/13 01:29:13;;;;;;;13.40;8.10;;;;;;;7.75;99.73;98697.29;105807;1253;60575;-76
2024/02/13 01:31:42;;;;;;;13.70;8.00;;;;;;;7.71;99.61;98698.30;105823;1255;60524;-77
2024/02/13 01:34:09;;;;;;;10.60;7.40;;;;;;;7.72;99.41;98700.08;106334;1258;73818;-75
2024/02/13 01:36:37;;;;;;;15.70;8.80;;;;;;;7.71;99.46;98702.66;106880;1253;69103;-75
2024/02/13 01:39:05;;;;;;;15.60;8.40;;;;;;;7.64;99.65;98704.45;107278;1254;72750;-74
2024/02/13 01:41:32;;;;;;;14.80;8.60;;;;;;;7.60;99.76;98706.44;107560;1253;61699;-75
2024/02/13 01:44:03;;;;;;;11.00;7.70;;;;;;;7.62;99.71;98706.48;106276;1258;60428;-76
2024/02/13 01:46:31;;;;;;;12.80;8.80;;;;;;;7.63;99.44;98707.93;106051;1253;73876;-74
2024/02/13 01:48:58;;;;;;;15.20;9.10;;;;;;;7.58;99.42;98708.40;106096;1258;69448;-76
2024/02/13 01:51:28;;;;;;;18.20;9.60;;;;;;;7.53;99.57;98706.63;105728;1253;72719;-74
2024/02/13 01:53:57;;;;;;;17.40;8.60;;;;;;;7.55;99.48;98701.67;105804;1254;60521;-76
2024/02/13 01:56:27;;;;;;;14.80;8.30;;;;;;;7.57;99.64;98688.21;105644;1254;60564;-76
2024/02/13 01:58:58;;;;;;;14.60;8.90;;;;;;;7.53;99.54;98695.60;105887;1257;73922;-76
2024/02/13 02:01:27;;;;;;;12.10;8.70;;;;;;;7.46;99.60;98696.63;105830;1259;68048;-74
2024/02/13 02:03:55;;;;;;;15.10;8.80;;;;;;;7.47;99.36;98698.28;105742;1256;72688;-76
2024/02/13 02:06:23;;;;;;;13.00;8.40;;;;;;;7.49;99.08;98702.49;105894;1256;60471;-75
2024/02/13 02:08:50;;;;;;;15.40;9.00;;;;;;;7.43;99.32;98703.26;107152;1260;60423;-76
2024/02/13 02:11:18;;;;;;;16.30;7.50;;;;;;;7.35;99.47;98706.95;105729;1254;71955;-76
2024/02/13 02:13:45;;;;;;;15.20;9.40;;;;;;;7.35;99.07;98708.05;106926;1253;70108;-75
2024/02/13 02:16:12;;;;;;;18.40;9.10;;;;;;;7.35;98.76;98712.24;107031;1255;71438;-77
2024/02/13 02:18:40;;;;;;;22.00;11.00;;;;;;;7.28;99.00;98706.40;105930;1258;60425;-76
2024/02/13 02:21:08;;;;;;;15.20;9.90;;;;;;;7.21;99.17;98694.57;108195;1253;60005;-76
2024/02/13 02:23:36;;;;;;;15.40;8.90;;;;;;;7.20;98.93;98693.39;106428;1253;72597;-76
2024/02/13 02:26:06;;;;;;;14.60;10.30;;;;;;;7.21;98.77;98695.04;107539;1253;68769;-76
2024/02/13 02:28:34;;;;;;;15.10;9.40;;;;;;;7.15;98.94;98698.11;108421;1253;71704;-77
2024/02/13 02:31:01;;;;;;;15.20;8.10;;;;;;;7.07;99.05;98701.90;108864;1253;60455;-76
2024/02/13 02:33:29;;;;;;;16.80;8.80;;;;;;;7.09;99.03;98703.08;107359;1258;60350;-76
2024/02/13 02:35:56;;;;;;;16.40;8.60;;;;;;;7.10;98.76;98708.27;109050;1253;72583;-75
2024/02/13 02:38:24;;;;;;;12.00;8.40;;;;;;;7.04;98.71;98704.88;109161;1257;69387;-75
2024/02/13 02:40:51;;;;;;;11.50;8.40;;;;;;;7.00;98.76;98704.30;108989;1253;71159;-76
2024/02/13 02:43:19;;;;;;;12.20;8.30;;;;;;;7.01;98.75;98703.17;108330;1254;60629;-76
2024/02/13 02:45:47;;;;;;;15.20;8.90;;;;;;;6.99;98.64;98707.10;108128;1253;60411;-77
2024/02/13 02:48:16;;;;;;;13.80;7.90;;;;;;;6.92;99.07;98707.00;108277;1253;72514;-76
2024/02/13 02:50:44;;;;;;;11.90;7.60;;;;;;;6.89;98.96;98707.41;107936;1254;70959;-76
2024/02/13 02:53:12;;;;;;;17.80;7.90;;;;;;;6.90;98.57;98705.78;106050;1257;71437;-76
2024/02/13 02:55:40;;;;;;;12.50;8.60;;;;;;;6.83;98.68;98704.94;106094;1253;60493;-76
2024/02/13 02:58:11;;;;;;;13.40;8.70;;;;;;;6.76;98.98;98703.81;105803;1258;60445;-76
2024/02/13 03:00:38;;;;;;;14.40;8.00;;;;;;;6.76;98.96;98705.77;106079;1253;74950;-78
2024/02/13 03:03:06;;;;;;;13.70;9.30;;;;;;;6.76;98.74;98707.11;105776;1258;69027;-78
2024/02/13 03:05:34;;;;;;;15.00;9.00;;;;;;;6.68;98.88;98712.07;105777;1254;71832;-77
2024/02/13 03:08:02;;;;;;;16.10;8.70;;;;;;;6.59;99.35;98713.23;105713;1253;60820;-76
2024/02/13 03:10:29;;;;;;;17.30;8.40;;;;;;;6.59;99.29;98720.23;105866;1257;60410;-77
2024/02/13 03:12:58;;;;;;;12.80;8.90;;;;;;;6.59;99.20;98721.42;105570;1254;73784;-76
2024/02/13 03:15:27;;;;;;;17.00;9.00;;;;;;;6.54;99.53;98719.00;105710;1253;68794;-75
2024/02/13 03:17:54;;;;;;;13.50;8.50;;;;;;;6.48;99.97;98720.23;105669;1254;72657;-75
2024/02/13 03:20:22;;;;;;;17.40;8.10;;;;;;;6.50;99.66;98731.08;105746;1253;60484;-76
2024/02/13 03:22:49;;;;;;;14.50;8.00;;;;;;;6.51;99.51;98729.52;105763;1258;60378;-77
2024/02/13 03:25:17;;;;;;;17.00;8.30;;;;;;;6.46;99.73;98725.36;105850;1253;73797;-78
2024/02/13 03:27:44;;;;;;;16.70;8.70;;;;;;;6.38;100.00;98724.21;105715;1253;69218;-77
2024/02/13 03:30:13;;;;;;;13.30;6.80;;;;;;;6.39;100.00;98723.79;105799;1254;73136;-77
2024/02/13 03:32:40;;;;;;;12.70;7.40;;;;;;;6.41;99.78;98726.23;107586;1253;60567;-77
2024/02/13 03:35:08;;;;;;;15.40;8.50;;;;;;;6.36;99.90;98722.73;107470;1253;60467;-76
2024/02/13 03:37:36;;;;;;;11.20;7.40;;;;;;;6.32;100.00;98726.27;106490;1254;73909;-77
2024/02/13 03:40:06;;;;;;;10.70;7.10;;;;;;;6.36;99.98;98721.98;106119;1253;69041;-77
2024/02/13 03:42:36;;;;;;;14.00;8.80;;;;;;;6.40;99.82;98725.67;106092;1254;71361;-76
2024/02/13 03:45:05;;;;;;;13.60;8.90;;;;;;;6.33;99.89;98726.70;105970;1254;60547;-77
2024/02/13 03:47:33;;;;;;;17.00;8.70;;;;;;;6.25;100.00;98737.39;105564;1253;60515;-77
2024/02/13 03:50:01;;;;;;;13.10;8.50;;;;;;;6.28;100.00;98749.28;105551;1253;72622;-78
2024/02/13 03:52:29;;;;;;;12.20;8.30;;;;;;;6.29;100.00;98743.23;105743;1253;69571;-75
2024/02/13 03:54:57;;;;;;;11.60;8.60;;;;;;;6.20;100.00;98749.05;105751;1253;72651;-78
2024/02/13 03:57:24;;;;;;;14.50;8.30;;;;;;;6.14;100.00;98749.66;105798;1257;60442;-76
2024/02/13 03:59:52;;;;;;;15.80;8.40;;;;;;;6.18;100.00;98755.80;105682;1253;60473;-76
2024/02/13 04:02:20;;;;;;;13.00;8.90;;;;;;;6.17;100.00;98756.92;105656;1260;73792;-76
2024/02/13 04:04:47;;;;;;;16.00;9.20;;;;;;;6.10;100.00;98757.13;105741;1253;70325;-76
2024/02/13 04:07:15;;;;;;;12.10;9.20;;;;;;;6.05;100.00;98760.14;105735;1254;71772;-76
2024/02/13 04:09:43;;;;;;;49.30;32.30;;;;;;;6.06;100.00;98762.61;105792;1254;61650;-76
2024/02/13 04:12:10;;;;;;;16.20;10.60;;;;;;;6.05;100.00;98762.75;105747;1258;60356;-78
2024/02/13 04:14:38;;;;;;;16.80;9.90;;;;;;;5.97;100.00;98760.78;105863;1253;73976;-75
2024/02/13 04:17:05;;;;;;;15.70;9.70;;;;;;;5.89;100.00;98770.89;106170;1257;68909;-76
2024/02/13 04:19:33;;;;;;;13.30;9.40;;;;;;;5.90;100.00;98767.64;105999;1253;70547;-75
2024/02/13 04:22:00;;;;;;;18.90;10.20;;;;;;;5.91;100.00;98769.63;105951;1253;60546;-77
2024/02/13 04:24:28;;;;;;;16.60;10.00;;;;;;;5.86;100.00;98771.98;105758;1254;61260;-75
2024/02/13 04:26:55;;;;;;;16.30;10.00;;;;;;;5.80;100.00;98775.63;105750;1253;73962;-75
2024/02/13 04:29:23;;;;;;;16.30;9.80;;;;;;;5.80;100.00;98777.63;107034;1258;68697;-77
2024/02/13 04:31:50;;;;;;;18.20;10.40;;;;;;;5.82;100.00;98778.30;107418;1253;72665;-76
2024/02/13 04:34:17;;;;;;;18.10;10.60;;;;;;;5.79;100.00;98783.07;107339;1253;60467;-74
2024/02/13 04:36:45;;;;;;;18.60;9.70;;;;;;;5.72;100.00;98780.21;107355;1258;60359;-77
2024/02/13 04:39:13;;;;;;;20.10;11.00;;;;;;;5.77;100.00;98784.52;105963;1253;75061;-76
2024/02/13 04:41:42;;;;;;;17.50;10.80;;;;;;;5.80;100.00;98785.38;105782;1253;69918;-76
2024/02/13 04:44:11;;;;;;;23.70;12.70;;;;;;;5.77;100.00;98786.61;105704;1254;71456;-76
2024/02/13 04:46:41;;;;;;;21.40;11.30;;;;;;;5.70;100.00;98789.38;105789;1254;61629;-76
2024/02/13 04:49:11;;;;;;;17.70;10.30;;;;;;;5.70;100.00;98795.88;105651;1260;60350;-76
2024/02/13 04:51:39;;;;;;;23.10;12.00;;;;;;;5.73;100.00;98796.52;105884;1257;73848;-74
2024/02/13 04:54:06;;;;;;;20.20;12.80;;;;;;;5.67;100.00;98797.29;105770;1253;70296;-75
2024/02/13 04:56:34;;;;;;;16.40;10.70;;;;;;;5.62;100.00;98797.35;105764;1258;71430;-76
2024/02/13 04:59:02;;;;;;;19.10;10.60;;;;;;;5.66;100.00;98803.06;105850;1253;60459;-76
2024/02/13 05:01:30;;;;;;;18.50;10.60;;;;;;;5.70;100.00;98804.13;105839;1253;60313;-76
2024/02/13 05:09:30;;;;;;;16.40;10.30;;;;;;;5.69;100.00;98808.17;105681;1256;71729;-76
2024/02/13 05:11:58;;;;;;;19.50;12.00;;;;;;;5.74;100.00;98815.59;105723;1253;60419;-76
2024/02/13 05:14:27;;;;;;;19.10;12.10;;;;;;;5.71;100.00;98823.10;105624;1253;60614;-75
2024/02/13 05:16:55;;;;;;;18.10;11.60;;;;;;;5.67;100.00;98829.80;105900;1253;73903;-75
2024/02/13 05:19:22;;;;;;;20.20;12.30;;;;;;;5.68;100.00;98831.42;105676;1253;69943;-75
2024/02/13 05:21:50;;;;;;;21.20;13.70;;;;;;;5.71;100.00;98833.97;105780;1253;71358;-78
2024/02/13 05:24:18;;;;;;;21.00;14.80;;;;;;;5.66;100.00;98830.92;105774;1253;60502;-76
2024/02/13 05:26:46;;;;;;;25.20;15.00;;;;;;;5.60;100.00;98831.56;105825;1253;60601;-76
2024/02/13 05:29:13;;;;;;;21.60;13.40;;;;;;;5.55;100.00;98842.77;105938;1253;71781;-76
2024/02/13 05:31:41;;;;;;;16.70;10.90;;;;;;;5.57;100.00;98841.33;107914;1253;70329;-75
2024/02/13 05:34:09;;;;;;;19.90;12.10;;;;;;;5.57;100.00;98840.52;108928;1254;70753;-76
2024/02/13 05:36:37;;;;;;;22.40;12.80;;;;;;;5.50;100.00;98846.60;106996;1258;60483;-78
2024/02/13 05:39:05;;;;;;;20.90;11.10;;;;;;;5.45;100.00;98851.88;105902;1253;60299;-77
2024/02/13 05:41:32;;;;;;;18.40;11.60;;;;;;;5.49;100.00;98859.20;105987;1253;73041;-77
2024/02/13 05:44:03;;;;;;;15.30;11.00;;;;;;;5.52;100.00;98864.03;106411;1258;68919;-77
2024/02/13 05:46:30;;;;;;;17.80;11.40;;;;;;;5.47;100.00;98863.25;106385;1253;71247;-76
2024/02/13 05:49:01;;;;;;;17.70;11.60;;;;;;;5.43;100.00;98861.27;105758;1255;61766;-76
2024/02/13 05:51:29;;;;;;;22.70;11.20;;;;;;;5.46;100.00;98863.34;105836;1253;60486;-77
2024/02/13 05:53:57;;;;;;;18.60;11.00;;;;;;;5.52;100.00;98867.05;105755;1256;73814;-73
2024/02/13 05:56:25;;;;;;;20.00;11.80;;;;;;;5.51;100.00;98865.55;105920;1259;68833;-75
2024/02/13 05:59:00;;;;;;;13.80;10.20;;;;;;;5.47;100.00;98867.70;105768;1256;72740;-75
2024/02/13 06:01:29;;;;;;;15.10;9.40;;;;;;;5.48;100.00;98870.95;106306;1253;60460;-80
2024/02/13 06:04:01;;;;;;;13.30;8.60;;;;;;;5.53;100.00;98870.98;107065;1253;60422;-82
2024/02/13 06:06:42;;;;;;;20.60;10.70;;;;;;;5.52;100.00;98878.02;108474;1253;72852;-84
2024/02/13 06:09:10;;;;;;;21.00;10.70;;;;;;;5.48;100.00;98876.67;108546;1253;68903;-81
2024/02/13 06:11:37;;;;;;;16.90;9.80;;;;;;;5.53;100.00;98880.23;108194;1258;71414;-81
2024/02/13 06:14:05;;;;;;;15.30;10.80;;;;;;;5.58;100.00;98879.61;107988;1253;60343;-82
2024/02/13 06:16:32;;;;;;;17.00;10.70;;;;;;;5.55;100.00;98880.94;109062;1253;58747;-82
2024/02/13 06:19:00;;;;;;;17.20;11.40;;;;;;;5.53;100.00;98888.51;109272;1253;72588;-80
2024/02/13 06:21:28;;;;;;;15.20;11.40;;;;;;;5.59;100.00;98893.37;107956;1258;67798;-80
2024/02/13 06:23:56;;;;;;;20.90;12.60;;;;;;;5.64;100.00;98884.56;106887;1259;73145;-82
2024/02/13 06:26:24;;;;;;;21.70;13.80;;;;;;;5.61;100.00;98883.86;107140;1253;215143;-81
2024/02/13 06:31:46;;;;;;;20.50;13.20;;;;;;;5.60;100.00;98896.27;105868;1293;599662;-83
2024/02/13 06:34:16;;;;;;;19.20;12.40;;;;;;;5.64;100.00;98898.21;108295;1267;60407;-81
2024/02/13 06:36:43;;;;;;;18.90;12.50;;;;;;;5.72;100.00;98896.90;108032;1267;59331;-81
2024/02/13 06:39:12;;;;;;;23.50;12.60;;;;;;;5.72;100.00;98892.49;107707;1267;71096;-81
2024/02/13 06:41:40;;;;;;;17.50;12.50;;;;;;;5.69;100.00;98892.96;105844;1267;68072;-80
2024/02/13 06:44:07;;;;;;;19.50;11.00;;;;;;;5.66;100.00;98895.55;108964;1259;71064;-80
2024/02/13 06:46:36;;;;;;;16.80;11.90;;;;;;;5.71;100.00;98895.41;107603;1257;231958;-81
2024/02/13 06:49:05;;;;;;;15.60;11.00;;;;;;;5.78;100.00;98904.60;107562;1259;59545;-81
2024/02/13 06:51:33;;;;;;;23.20;13.20;;;;;;;5.81;100.00;98910.27;106084;1258;70936;-81
2024/02/13 06:54:01;;;;;;;18.80;12.90;;;;;;;5.79;100.00;98916.77;106671;1254;70414;-81
2024/02/13 06:56:30;;;;;;;20.60;11.90;;;;;;;5.83;100.00;98924.48;106003;1254;71403;-82
2024/02/13 06:58:57;;;;;;;19.70;12.60;;;;;;;5.92;100.00;98921.94;105807;1254;60520;-82
2024/02/13 07:01:25;;;;;;;22.80;14.50;;;;;;;5.98;100.00;98926.30;105659;1254;59817;-82
2024/02/13 07:03:52;;;;;;;23.00;13.70;;;;;;;5.96;100.00;98919.84;105746;1255;71624;-82
2024/02/13 07:06:21;;;;;;;21.80;13.80;;;;;;;5.98;100.00;98921.35;106473;1254;69421;-86
2024/02/13 07:09:11;;;;;;;20.70;14.20;;;;;;;6.08;100.00;98920.17;106100;1254;72539;-82
2024/02/13 07:11:39;;;;;;;19.80;13.40;;;;;;;6.12;100.00;98919.58;106241;1258;59621;-83
2024/02/13 07:14:07;;;;;;;19.80;13.40;;;;;;;6.12;100.00;98918.84;107853;1254;59641;-84
2024/02/13 07:16:38;;;;;;;22.10;15.20;;;;;;;6.12;100.00;98911.48;108396;1258;72413;-85
2024/02/13 07:19:07;;;;;;;21.10;13.70;;;;;;;6.24;100.00;98910.64;106803;1254;68916;-85
2024/02/13 07:21:35;;;;;;;22.10;13.10;;;;;;;6.40;100.00;98908.77;106719;1254;71640;-87
2024/02/13 07:24:04;;;;;;;22.20;13.70;;;;;;;6.46;100.00;98907.16;106795;1254;59811;-87
2024/02/13 07:26:32;;;;;;;19.90;13.10;;;;;;;6.53;100.00;98907.92;107268;1254;59719;-84
2024/02/13 07:28:59;;;;;;;18.10;12.00;;;;;;;6.67;99.98;98910.27;108597;1254;71791;-84
2024/02/13 07:31:31;;;;;;;19.90;11.70;;;;;;;6.84;99.67;98915.16;109271;1253;69381;-85
2024/02/13 07:33:59;;;;;;;19.20;12.80;;;;;;;6.95;99.58;98918.00;109022;1254;71467;-85
2024/02/13 07:36:27;;;;;;;20.20;12.50;;;;;;;7.03;99.71;98917.11;108729;1253;59667;-84
2024/02/13 07:38:56;;;;;;;18.00;10.90;;;;;;;7.11;98.16;98928.43;108518;1254;60851;-84
2024/02/13 07:41:24;;;;;;;18.80;11.70;;;;;;;7.25;97.72;98927.14;106804;1255;71817;-84
2024/02/13 07:43:51;;;;;;;22.00;13.10;;;;;;;7.39;97.86;98923.81;108140;1254;68742;-84
2024/02/13 07:46:19;;;;;;;20.20;13.10;;;;;;;7.48;98.09;98920.20;106548;1255;72686;-84
2024/02/13 07:48:51;;;;;;;21.40;13.40;;;;;;;7.56;97.74;98918.10;106721;1253;61864;-84
2024/02/13 07:51:20;;;;;;;17.50;12.80;;;;;;;7.72;97.16;98921.27;107693;1254;59709;-83
2024/02/13 07:53:47;;;;;;;23.40;12.90;;;;;;;7.91;96.95;98919.67;107480;1253;71943;-85
2024/02/13 07:56:18;;;;;;;22.10;14.20;;;;;;;8.04;96.94;98918.56;106566;1253;70279;-83
2024/02/13 07:58:46;;;;;;;23.30;14.70;;;;;;;8.12;96.02;98921.45;106589;1258;71130;-84
2024/02/13 08:01:20;;;;;;;21.80;14.90;;;;;;;8.19;95.99;98925.61;106993;1256;60383;-83
2024/02/13 08:03:48;;;;;;;21.90;14.50;;;;;;;8.34;94.92;98929.02;106533;1253;60399;-84
2024/02/13 08:06:16;;;;;;;23.90;15.60;;;;;;;8.47;94.95;98931.74;106486;1253;74521;-84
2024/02/13 08:08:46;;;;;;;29.20;18.50;;;;;;;8.54;94.62;98931.02;105979;1258;69355;-84
2024/02/13 08:11:14;;;;;;;27.60;18.40;;;;;;;8.60;94.69;98933.13;106429;1253;72600;-80
2024/02/13 08:13:43;;;;;;;26.90;16.10;;;;;;;8.65;94.03;98935.38;106368;1256;61676;-81
2024/02/13 08:16:14;;;;;;;25.20;16.70;;;;;;;8.77;93.42;98940.00;105973;1253;59843;-79
2024/02/13 08:18:41;;;;;;;27.70;16.30;;;;;;;8.86;92.32;98942.33;106551;1254;72955;-82
2024/02/13 08:21:11;;;;;;;32.20;17.90;;;;;;;8.90;92.36;98944.55;106794;1253;69634;-84
2024/02/13 08:23:39;;;;;;;26.10;16.50;;;;;;;8.93;91.56;98948.02;106617;1254;71777;-82
2024/02/13 08:26:07;;;;;;;25.80;15.10;;;;;;;9.02;91.22;98947.64;107342;1257;60664;-84
2024/02/13 08:28:42;;;;;;;26.00;15.40;;;;;;;9.12;90.85;98948.80;108487;1253;59169;-86
2024/02/13 08:31:09;;;;;;;21.70;14.50;;;;;;;9.18;90.79;98948.98;109205;1253;71863;-83
2024/02/13 08:33:37;;;;;;;24.30;15.60;;;;;;;9.22;90.26;98953.78;108588;1254;68817;-83
2024/02/13 08:36:06;;;;;;;26.90;14.30;;;;;;;9.30;90.17;98952.15;108229;1253;71296;-86
2024/02/13 08:38:33;;;;;;;28.80;15.60;;;;;;;9.48;90.05;98954.61;107831;1253;60982;-87
2024/02/13 08:41:01;;;;;;;27.60;16.10;;;;;;;9.67;89.74;98957.42;108533;1253;59487;-85
2024/02/13 08:43:29;;;;;;;24.30;16.70;;;;;;;9.77;89.40;98958.64;106864;1254;70977;-86
2024/02/13 08:45:56;;;;;;;26.80;15.40;;;;;;;9.85;88.99;98963.52;106791;1258;68866;-86
2024/02/13 08:48:24;;;;;;;22.30;14.70;;;;;;;10.02;88.80;98957.99;106842;1253;71786;-86
2024/02/13 08:50:53;;;;;;;21.20;14.30;;;;;;;10.18;88.28;98958.70;106661;1253;60078;-86
2024/02/13 08:53:23;;;;;;;26.20;16.80;;;;;;;10.26;86.63;98957.96;107316;1253;60463;-86
2024/02/13 08:55:51;;;;;;;23.20;15.30;;;;;;;10.30;87.63;98959.96;106626;1256;73255;-86
2024/02/13 08:58:19;;;;;;;23.40;14.90;;;;;;;10.44;87.41;98964.85;106288;1253;70514;-84
2024/02/13 09:00:46;;;;;;;20.50;13.70;;;;;;;10.65;87.16;98956.05;106433;1253;73675;-84
2024/02/13 09:03:14;;;;;;;21.80;14.60;;;;;;;10.78;86.25;98953.40;107134;1254;59553;-84
2024/02/13 09:05:41;;;;;;;22.10;14.70;;;;;;;10.90;87.59;98959.58;108934;1253;60973;-82
2024/02/13 09:08:09;;;;;;;23.90;13.20;;;;;;;11.10;87.86;98957.11;107119;1253;73131;-86
2024/02/13 09:10:36;;;;;;;23.30;13.30;;;;;;;11.36;87.07;98959.00;108279;1253;68428;-86
2024/02/13 09:13:04;;;;;;;23.50;14.10;;;;;;;11.57;84.48;98954.92;107548;1255;73897;-84
2024/02/13 09:15:32;;;;;;;22.60;13.60;;;;;;;11.64;82.86;98953.61;106901;1253;59629;-83
2024/02/13 09:18:01;;;;;;;26.20;12.00;;;;;;;11.70;82.95;98956.64;106307;1256;59990;-85
2024/02/13 09:20:29;;;;;;;18.60;12.80;;;;;;;11.89;82.54;98956.40;106621;1253;73427;-83
2024/02/13 09:22:57;;;;;;;28.40;15.50;;;;;;;12.05;81.95;98960.61;106690;1253;69127;-85
2024/02/13 09:25:24;;;;;;;25.00;14.90;;;;;;;12.15;80.22;98958.09;106625;1256;72493;-83
2024/02/13 09:27:54;;;;;;;22.30;13.90;;;;;;;12.27;80.52;98953.71;107974;1253;61329;-84
2024/02/13 09:30:23;;;;;;;24.70;13.50;;;;;;;12.45;80.33;98956.20;109317;1253;59137;-85
2024/02/13 09:32:50;;;;;;;24.00;13.80;;;;;;;12.62;78.37;98956.67;108928;1253;71426;-85
2024/02/13 09:35:18;;;;;;;18.20;9.90;;;;;;;12.85;77.33;98961.64;107993;1257;70558;-81
2024/02/13 09:37:46;;;;;;;21.30;13.80;;;;;;;13.05;76.67;98958.77;108609;1253;72719;-84
2024/02/13 09:40:14;;;;;;;22.20;14.10;;;;;;;13.28;76.21;98956.63;107252;1253;61006;-82
2024/02/13 09:42:43;;;;;;;24.80;16.30;;;;;;;13.51;75.57;98954.17;107386;1253;59175;-82
2024/02/13 09:45:11;;;;;;;26.80;17.10;;;;;;;13.75;75.49;98958.02;106800;1260;73102;-82
2024/02/13 09:47:40;;;;;;;26.60;14.50;;;;;;;14.03;75.06;98952.32;106547;1258;71469;-81
2024/02/13 09:50:12;;;;;;;21.90;13.10;;;;;;;14.33;74.33;98949.23;107090;1253;71699;-81
2024/02/13 09:52:57;;;;;;;20.90;12.50;;;;;;;14.68;72.12;98952.75;108777;1253;60454;-79
2024/02/13 09:55:25;;;;;;;21.80;13.20;;;;;;;14.95;70.42;98951.84;108192;1253;59131;-82
2024/02/13 09:57:53;;;;;;;19.20;12.60;;;;;;;15.18;70.65;98951.65;106118;1260;75232;-82
2024/02/13 10:00:21;;;;;;;17.60;12.30;;;;;;;15.54;69.72;98948.59;106246;1258;69037;-82
2024/02/13 10:02:49;;;;;;;18.90;12.60;;;;;;;15.95;69.50;98944.33;106051;1262;74961;-84
2024/02/13 10:05:17;;;;;;;17.90;12.00;;;;;;;16.37;67.75;98947.41;106255;1258;62216;-83
2024/02/13 10:07:46;;;;;;;14.00;12.20;;;;;;;16.74;65.98;98945.46;106663;1253;60826;-83
2024/02/13 10:10:14;;;;;;;20.80;13.90;;;;;;;17.12;65.37;98948.93;106539;1253;75238;-83
2024/02/13 10:12:52;;;;;;;18.00;14.40;;;;;;;17.46;63.89;98950.25;106461;1256;69883;-83
2024/02/13 10:15:20;;;;;;;21.30;15.30;;;;;;;17.84;64.73;98951.88;106154;1260;73427;-82
2024/02/13 10:17:51;;;;;;;19.80;15.10;;;;;;;18.20;62.50;98955.93;106829;1258;60142;-83
2024/02/13 10:20:19;;;;;;;22.80;15.50;;;;;;;18.49;61.48;98951.36;106797;1253;59340;-80
2024/02/13 10:22:47;;;;;;;20.20;14.80;;;;;;;18.64;59.46;98946.86;106333;1253;72051;-82
2024/02/13 10:25:22;;;;;;;18.80;13.80;;;;;;;18.70;59.09;98950.96;106626;1258;70481;-81
2024/02/13 10:27:54;;;;;;;17.80;13.20;;;;;;;18.85;58.80;98953.35;108266;1254;74781;-82
2024/02/13 10:30:25;;;;;;;18.40;15.00;;;;;;;18.97;57.49;98954.12;108973;1253;59485;-84
2024/02/13 10:32:54;;;;;;;19.80;13.60;;;;;;;18.94;56.31;98954.39;108386;1256;61323;-81
2024/02/13 10:35:22;;;;;;;18.60;12.80;;;;;;;18.83;57.07;98954.35;107633;1256;71482;-81
2024/02/13 10:37:52;;;;;;;16.40;14.60;;;;;;;18.96;57.70;98952.88;107494;1254;71235;-83
2024/02/13 10:40:23;;;;;;;16.40;13.40;;;;;;;19.14;56.78;98961.67;106306;1260;72369;-82
2024/02/13 10:42:54;;;;;;;20.10;13.90;;;;;;;19.23;56.53;98963.60;108852;1254;59152;-81
2024/02/13 10:45:25;;;;;;;18.90;15.10;;;;;;;19.37;56.94;98966.19;109083;1254;61001;-84
2024/02/13 10:47:54;;;;;;;17.20;15.50;;;;;;;19.62;55.62;98966.77;107880;1253;73186;-84
2024/02/13 10:50:22;;;;;;;21.70;16.70;;;;;;;19.74;54.74;98972.89;107776;1255;71553;-83
2024/02/13 10:52:52;;;;;;;23.40;16.50;;;;;;;19.78;54.37;98971.61;106716;1258;73941;-85
2024/02/13 10:55:20;;;;;;;23.20;14.80;;;;;;;19.86;53.56;98970.21;107189;1258;61074;-82
2024/02/13 10:57:49;;;;;;;22.50;14.70;;;;;;;19.83;53.23;98975.88;106221;1258;60455;-83
2024/02/13 11:00:20;;;;;;;22.70;15.50;;;;;;;19.68;52.79;98974.13;106229;1259;73909;-85
2024/02/13 11:02:51;;;;;;;21.40;13.20;;;;;;;19.55;52.79;98976.08;106062;1253;72133;-83
2024/02/13 11:05:19;;;;;;;19.20;13.20;;;;;;;19.38;52.31;98971.05;106036;1261;72972;-81
2024/02/13 11:07:47;;;;;;;20.60;12.50;;;;;;;19.07;52.95;98977.53;105852;1256;60539;-80
2024/02/13 11:10:15;;;;;;;15.30;11.30;;;;;;;18.82;53.27;98975.63;105789;1253;60493;-82
2024/02/13 11:12:44;;;;;;;16.30;10.30;;;;;;;18.64;53.41;98978.27;105740;1259;73948;-81
2024/02/13 11:15:14;;;;;;;17.30;11.10;;;;;;;18.42;53.11;98981.77;105927;1258;69464;-83
2024/02/13 11:17:54;;;;;;;15.80;10.40;;;;;;;18.06;53.87;98984.20;106168;1254;72978;-87
2024/02/13 11:20:28;;;;;;;17.60;10.50;;;;;;;17.72;54.06;98990.85;106683;1256;62353;-84
2024/02/13 11:22:58;;;;;;;15.60;9.50;;;;;;;17.31;55.09;98986.17;106436;1254;60527;-84
2024/02/13 11:25:26;;;;;;;15.80;10.50;;;;;;;17.04;55.49;98987.41;106808;1253;73380;-85
2024/02/13 11:28:06;;;;;;;19.20;9.80;;;;;;;16.78;56.30;98986.14;109225;1253;70455;-87